createdAt,value
2019-01-02T00:02:54.810Z,101191.70
2019-01-02T00:07:58.855Z,101187.88
2019-01-02T00:13:03.351Z,101192.04
2019-01-02T00:18:07.767Z,101187.13
2019-01-02T00:23:11.826Z,101193.89
2019-01-02T00:28:15.853Z,101199.92
2019-01-02T00:33:20.771Z,101219.42
2019-01-02T00:38:24.803Z,101212.21
2019-01-02T00:43:29.096Z,101213.99
2019-01-02T00:48:33.492Z,101221.52
2019-01-02T00:53:37.847Z,101226.75
2019-01-02T00:58:41.967Z,101228.08
2019-01-02T01:03:46.085Z,101234.21
2019-01-02T01:08:50.104Z,101236.06
2019-01-02T01:13:54.269Z,101249.46
2019-01-02T01:18:58.316Z,101234.51
2019-01-02T01:24:02.430Z,101242.34
2019-01-02T01:29:06.522Z,101252.84
2019-01-02T01:34:10.951Z,101266.22
2019-01-02T01:39:14.990Z,101259.91
2019-01-02T01:44:19.019Z,101267.27
2019-01-02T01:49:23.099Z,101270.28
2019-01-02T01:54:27.130Z,101274.63
2019-01-02T01:59:31.209Z,101253.66
2019-01-02T02:04:35.319Z,101265.00
2019-01-02T02:09:39.920Z,101270.23
2019-01-02T02:14:44.001Z,101271.11
2019-01-02T02:19:48.055Z,101284.42
2019-01-02T02:24:52.756Z,101288.65
2019-01-02T02:29:56.790Z,101294.31
2019-01-02T02:35:00.827Z,101285.25
2019-01-02T02:40:05.393Z,101298.41
2019-01-02T02:45:10.525Z,101301.77
2019-01-02T02:50:15.835Z,101293.16
2019-01-02T02:55:22.406Z,101303.32
2019-01-02T03:00:26.774Z,101311.91
2019-01-02T03:05:30.852Z,101311.16
2019-01-02T03:10:35.203Z,101303.88
2019-01-02T03:15:39.619Z,101343.33
2019-01-02T03:20:43.994Z,101316.30
2019-01-02T03:25:48.057Z,101313.92
2019-01-02T03:30:52.400Z,101343.38
2019-01-02T03:35:56.708Z,101361.27
2019-01-02T03:41:00.742Z,101347.09
2019-01-02T03:46:04.841Z,101376.09
2019-01-02T03:51:08.878Z,101422.78
2019-01-02T03:56:12.936Z,101414.91
2019-01-02T04:01:17.064Z,101393.14
2019-01-02T04:06:21.118Z,101409.84
2019-01-02T04:11:25.220Z,101402.51
2019-01-02T04:16:29.265Z,101400.05
2019-01-02T04:21:33.258Z,101392.34
2019-01-02T04:26:37.597Z,101390.52
2019-01-02T04:31:41.616Z,101396.41
2019-01-02T04:36:45.661Z,101413.95
2019-01-02T04:41:49.728Z,101410.45
2019-01-02T04:46:53.736Z,101411.30
2019-01-02T04:51:57.789Z,101427.30
2019-01-02T04:57:02.115Z,101446.59
2019-01-02T05:02:06.176Z,101454.91
2019-01-02T05:07:10.289Z,101463.42
2019-01-02T05:12:14.309Z,101463.78
2019-01-02T05:17:18.391Z,101466.81
2019-01-02T05:22:22.518Z,101474.02
2019-01-02T05:27:26.593Z,101481.91
2019-01-02T05:32:30.671Z,101479.47
2019-01-02T05:37:34.726Z,101480.80
2019-01-02T05:42:38.766Z,101494.64
2019-01-02T05:47:42.898Z,101518.69
2019-01-02T05:52:46.977Z,101521.05
2019-01-02T05:57:51.052Z,101536.78
2019-01-02T06:02:55.183Z,101539.92
2019-01-02T06:07:59.233Z,101555.36
2019-01-02T06:13:03.301Z,101553.11
2019-01-02T06:18:07.372Z,101564.50
2019-01-02T06:23:11.398Z,101573.84
2019-01-02T06:28:15.501Z,101578.07
2019-01-02T06:33:19.540Z,101569.97
2019-01-02T06:38:23.652Z,101576.84
2019-01-02T06:43:27.704Z,101589.95
2019-01-02T06:48:31.732Z,101614.77
2019-01-02T06:53:35.828Z,101597.23
2019-01-02T06:58:39.911Z,101623.83
2019-01-02T07:03:44.086Z,101613.15
2019-01-02T07:08:48.319Z,101637.98
2019-01-02T07:13:52.382Z,101643.93
2019-01-02T07:18:56.443Z,101662.20
2019-01-02T07:24:00.492Z,101674.03
2019-01-02T07:29:04.707Z,101670.80
2019-01-02T07:34:33.738Z,101688.55
2019-01-02T07:40:31.830Z,101720.22
2019-01-02T07:46:34.889Z,101729.88
2019-01-02T07:52:14.100Z,101734.79
2019-01-02T07:58:07.813Z,101737.91
2019-01-02T08:03:44.417Z,101766.06
2019-01-02T08:10:11.482Z,101766.06
2019-01-02T08:15:57.967Z,101774.46
2019-01-02T08:22:07.226Z,101799.38
2019-01-02T08:27:44.601Z,101817.91
2019-01-02T08:33:32.524Z,101809.32
2019-01-02T08:39:20.408Z,101814.48
2019-01-02T08:44:57.812Z,101827.13
2019-01-02T08:50:54.856Z,101830.64
2019-01-02T08:56:43.054Z,101847.37
2019-01-02T09:02:30.034Z,101857.49
2019-01-02T09:08:19.646Z,101883.18
2019-01-02T09:14:11.942Z,101891.58
2019-01-02T09:19:58.860Z,101911.80
2019-01-02T09:25:39.018Z,101921.02
2019-01-02T09:31:27.357Z,101931.05
2019-01-02T09:37:26.848Z,101928.90
2019-01-02T09:43:24.551Z,101934.31
2019-01-02T09:48:56.634Z,101954.92
2019-01-02T09:54:37.202Z,101969.39
2019-01-02T10:00:15.177Z,101982.44
2019-01-02T10:05:52.530Z,101987.81
2019-01-02T10:11:30.004Z,102014.72
2019-01-02T10:17:03.903Z,102021.12
2019-01-02T10:22:36.242Z,102015.73
2019-01-02T10:28:33.353Z,102025.00
2019-01-02T10:34:19.468Z,102039.59
2019-01-02T10:39:48.012Z,102041.59
2019-01-02T10:46:03.193Z,102046.62
2019-01-02T10:51:41.464Z,102053.22
2019-01-02T10:57:24.431Z,102066.26
2019-01-02T11:03:04.271Z,102074.23
2019-01-02T11:08:25.431Z,102060.23
2019-01-02T11:14:13.001Z,102074.63
2019-01-02T11:19:55.883Z,102098.10
2019-01-02T11:25:43.638Z,102096.20
2019-01-02T11:31:24.528Z,102097.52
2019-01-02T11:37:21.979Z,102101.05
2019-01-02T11:43:36.832Z,102105.08
2019-01-02T11:48:44.077Z,102115.15
2019-01-02T11:53:47.314Z,102120.77
2019-01-02T11:58:52.383Z,102121.88
2019-01-02T12:03:56.967Z,102131.02
2019-01-02T12:09:01.233Z,102143.73
2019-01-02T12:14:05.898Z,102146.58
2019-01-02T12:19:27.913Z,102148.03
2019-01-02T12:24:32.032Z,102156.80
2019-01-02T12:29:36.109Z,102165.69
2019-01-02T12:34:40.181Z,102174.23
2019-01-02T12:39:44.311Z,102171.59
2019-01-02T12:45:06.752Z,102183.59
2019-01-02T12:50:11.226Z,102196.94
2019-01-02T12:55:15.659Z,102194.20
2019-01-02T13:00:19.869Z,102192.31
2019-01-02T13:05:45.938Z,102202.05
2019-01-02T13:11:13.053Z,102206.89
2019-01-02T13:17:00.799Z,102210.38
2019-01-02T13:22:31.180Z,102216.26
2019-01-02T13:27:41.990Z,102224.79
2019-01-02T13:33:32.955Z,102240.82
2019-01-02T13:38:48.201Z,102245.45
2019-01-02T13:44:30.461Z,102251.25
2019-01-02T13:50:30.489Z,102265.12
2019-01-02T13:55:34.524Z,102268.62
2019-01-02T14:00:38.625Z,102259.38
2019-01-02T14:05:45.885Z,102260.77
2019-01-02T14:10:49.956Z,102270.81
2019-01-02T14:15:54.004Z,102278.81
2019-01-02T14:20:58.324Z,102286.34
2019-01-02T14:26:02.388Z,102302.83
2019-01-02T14:31:06.465Z,102303.91
2019-01-02T14:36:10.532Z,102300.45
2019-01-02T14:41:14.634Z,102319.19
2019-01-02T14:46:36.375Z,102330.52
2019-01-02T14:51:40.498Z,102333.98
2019-01-02T14:56:47.108Z,102342.87
2019-01-02T15:01:51.506Z,102364.88
2019-01-02T15:06:55.840Z,102356.33
2019-01-02T15:12:00.492Z,102361.62
2019-01-02T15:17:04.594Z,102376.91
2019-01-02T15:22:09.558Z,102404.88
2019-01-02T15:27:14.490Z,102400.58
2019-01-02T15:32:19.177Z,102407.75
2019-01-02T15:37:23.552Z,102397.75
2019-01-02T15:42:29.413Z,102407.69
2019-01-02T15:47:34.017Z,102415.33
2019-01-02T15:52:38.744Z,102424.31
2019-01-02T15:57:43.633Z,102433.72
2019-01-02T16:02:49.805Z,102439.70
2019-01-02T16:07:55.105Z,102445.60
2019-01-02T16:12:59.863Z,102433.31
2019-01-02T16:18:05.002Z,102447.08
2019-01-02T16:23:09.181Z,102480.98
2019-01-02T16:28:14.619Z,102484.13
2019-01-02T16:33:20.953Z,102488.77
2019-01-02T16:38:26.026Z,102501.67
2019-01-02T16:43:30.668Z,102510.95
2019-01-02T16:48:35.359Z,102525.98
2019-01-02T16:53:43.404Z,102532.02
2019-01-02T16:58:48.908Z,102533.17
2019-01-02T17:03:53.843Z,102538.60
2019-01-02T17:08:57.903Z,102549.44
2019-01-02T17:14:02.025Z,102557.39
2019-01-02T17:19:06.174Z,102573.47
2019-01-02T17:24:10.199Z,102572.47
2019-01-02T17:29:14.200Z,102573.83
2019-01-02T17:34:18.279Z,102596.97
2019-01-02T17:39:22.400Z,102583.98
2019-01-02T17:44:26.484Z,102598.12
2019-01-02T17:49:30.647Z,102604.71
2019-01-02T17:54:34.922Z,102609.98
2019-01-02T17:59:39.009Z,102608.91
2019-01-02T18:04:43.129Z,102617.93
2019-01-02T18:09:47.419Z,102621.20
2019-01-02T18:14:53.815Z,102629.39
2019-01-02T18:19:57.582Z,102627.34
2019-01-02T18:25:01.723Z,102630.93
2019-01-02T18:30:08.241Z,102632.52
2019-01-02T18:35:12.331Z,102638.60
2019-01-02T18:40:16.480Z,102644.77
2019-01-02T18:45:20.540Z,102647.65
2019-01-02T18:50:25.577Z,102655.70
2019-01-02T18:55:29.723Z,102657.00
2019-01-02T19:00:34.045Z,102668.61
2019-01-02T19:05:38.118Z,102673.78
2019-01-02T19:10:42.440Z,102673.33
2019-01-02T19:15:46.478Z,102682.95
2019-01-02T19:20:50.595Z,102691.70
2019-01-02T19:25:54.858Z,102695.23
2019-01-02T19:31:00.413Z,102704.48
2019-01-02T19:36:04.427Z,102696.30
2019-01-02T19:41:08.475Z,102706.62
2019-01-02T19:46:12.551Z,102712.19
2019-01-02T19:51:16.618Z,102712.13
2019-01-02T19:56:20.644Z,102719.39
2019-01-02T20:01:24.793Z,102721.99
2019-01-02T20:06:28.836Z,102727.63
2019-01-02T20:11:33.159Z,102723.78
2019-01-02T20:16:37.243Z,102733.10
2019-01-02T20:21:41.627Z,102737.36
2019-01-02T20:26:46.606Z,102739.16
2019-01-02T20:31:51.421Z,102743.25
2019-01-02T20:37:01.167Z,102739.56
2019-01-02T20:42:09.375Z,102732.98
2019-01-02T20:47:13.914Z,102735.55
2019-01-02T20:52:18.505Z,102742.72
2019-01-02T20:57:28.172Z,102736.33
2019-01-02T21:02:33.585Z,102730.80
2019-01-02T21:07:40.492Z,102730.25
2019-01-02T21:12:48.279Z,102731.42
2019-01-02T21:17:53.089Z,102735.19
2019-01-02T21:22:57.410Z,102735.80
2019-01-02T21:28:02.500Z,102737.72
2019-01-02T21:33:07.237Z,102735.48
2019-01-02T21:38:12.152Z,102734.61
2019-01-02T21:43:19.881Z,102730.48
2019-01-02T21:48:25.961Z,102725.66
2019-01-02T21:53:32.178Z,102731.05
2019-01-02T21:58:40.113Z,102721.92
2019-01-02T22:03:46.122Z,102728.98
2019-01-02T22:08:50.612Z,102733.67
2019-01-02T22:13:55.800Z,102727.06
2019-01-02T22:19:00.245Z,102727.06
2019-01-02T22:24:04.516Z,102729.13
2019-01-02T22:29:08.548Z,102736.02
2019-01-02T22:34:12.627Z,102735.90
2019-01-02T22:39:16.736Z,102731.75
2019-01-02T22:44:21.223Z,102739.19
2019-01-02T22:49:26.181Z,102742.93
2019-01-02T22:54:30.602Z,102749.78
2019-01-02T22:59:35.293Z,102753.09
2019-01-02T23:04:39.576Z,102756.13
2019-01-02T23:09:43.918Z,102763.44
2019-01-02T23:14:48.044Z,102768.55
2019-01-02T23:19:52.154Z,102773.80
2019-01-02T23:24:56.283Z,102770.13
2019-01-02T23:30:00.381Z,102778.63
2019-01-02T23:35:04.663Z,102781.03
2019-01-02T23:40:08.990Z,102782.59
2019-01-02T23:45:13.181Z,102776.92
2019-01-02T23:50:17.242Z,102774.37
2019-01-02T23:55:21.863Z,102777.62
